Terminal Aerodrome Forecast
Issued by NWS

Home | Current Version | Previous Version | Text Only | Print | Product List | Glossary On
Versions: 1 2 3 4 5 6 7 8 9 10 11 12
000
FTUS45 KRIW 012300
TAFCPR
TAF
KCPR 012323Z 0200/0224 01011KT P6SM SCT110
     FM020200 04007KT P6SM SCT120
     FM020600 VRB05KT P6SM FEW120 SCT200
     FM021900 12007KT P6SM VCTS SCT090CB=

USA.gov is the U.S. government's official web portal to all federal, state and local government web resources and services.